createdAt,value
2023-06-10T00:02:28.693Z,5.88
2023-06-10T00:04:56.617Z,5.63
2023-06-10T00:07:25.111Z,6.03
2023-06-10T00:09:52.496Z,6.13
2023-06-10T00:12:21.314Z,5.80
2023-06-10T00:14:51.229Z,6.28
2023-06-10T00:17:18.948Z,6.10
2023-06-10T00:19:48.139Z,6.07
2023-06-10T00:22:15.686Z,5.93
2023-06-10T00:24:43.483Z,6.13
2023-06-10T00:27:11.060Z,6.13
2023-06-10T00:29:40.197Z,6.20
2023-06-10T00:32:08.595Z,5.57
2023-06-10T00:34:36.724Z,6.20
2023-06-10T00:37:04.902Z,6.70
2023-06-10T00:39:32.132Z,6.38
2023-06-10T00:41:59.491Z,6.47
2023-06-10T00:44:27.798Z,6.05
2023-06-10T00:46:56.960Z,6.20
2023-06-10T00:49:24.268Z,5.80
2023-06-10T00:51:54.321Z,6.22
2023-06-10T00:54:22.637Z,5.97
2023-06-10T00:56:51.107Z,6.45
2023-06-10T00:59:18.773Z,6.47
2023-06-10T01:01:51.029Z,5.75
2023-06-10T01:04:20.892Z,5.60
2023-06-10T01:07:21.030Z,6.40
2023-06-10T01:10:09.432Z,6.40
2023-06-10T01:13:12.974Z,6.13
2023-06-10T01:15:41.086Z,6.22
2023-06-10T01:18:11.161Z,6.13
2023-06-10T01:20:41.353Z,6.43
2023-06-10T01:23:10.611Z,5.68
2023-06-10T01:26:02.302Z,6.43
2023-06-10T01:28:55.111Z,6.07
2023-06-10T01:31:51.734Z,6.75
2023-06-10T01:34:24.531Z,6.53
2023-06-10T01:36:53.058Z,6.57
2023-06-10T01:39:26.491Z,5.97
2023-06-10T01:41:55.191Z,6.38
2023-06-10T01:44:25.591Z,6.38
2023-06-10T01:46:52.893Z,6.40
2023-06-10T01:49:20.237Z,5.95
2023-06-10T01:51:47.642Z,6.07
2023-06-10T01:54:14.989Z,6.50
2023-06-10T01:56:42.309Z,5.88
2023-06-10T01:59:09.593Z,6.00
2023-06-10T02:01:36.978Z,6.07
2023-06-10T02:04:04.693Z,6.30
2023-06-10T02:06:33.182Z,6.60
2023-06-10T02:09:00.548Z,6.25
2023-06-10T02:11:30.888Z,6.68
2023-06-10T02:13:59.029Z,6.38
2023-06-10T02:16:27.647Z,6.38
2023-06-10T02:18:56.849Z,5.75
2023-06-10T02:21:24.114Z,6.45
2023-06-10T02:23:51.652Z,6.65
2023-06-10T02:26:19.055Z,6.30
2023-06-10T02:28:46.481Z,6.68
2023-06-10T02:31:15.400Z,6.60
2023-06-10T02:33:43.015Z,6.57
2023-06-10T02:36:14.418Z,6.43
2023-06-10T02:38:43.117Z,6.13
2023-06-10T02:41:11.233Z,6.85
2023-06-10T02:43:38.710Z,6.63
2023-06-10T02:46:06.216Z,7.32
2023-06-10T02:48:47.323Z,6.65
2023-06-10T02:51:20.772Z,7.35
2023-06-10T02:53:50.948Z,7.50
2023-06-10T02:56:18.701Z,7.47
2023-06-10T02:58:46.931Z,6.95
2023-06-10T03:01:16.497Z,7.20
2023-06-10T03:03:53.738Z,7.30
2023-06-10T03:06:21.417Z,7.18
2023-06-10T03:08:48.963Z,7.03
2023-06-10T03:11:20.765Z,7.00
2023-06-10T03:13:49.460Z,7.00
2023-06-10T03:16:19.729Z,6.70
2023-06-10T03:18:54.981Z,6.57
2023-06-10T03:21:25.062Z,6.75
2023-06-10T03:23:52.934Z,6.93
2023-06-10T03:26:22.807Z,7.03
2023-06-10T03:28:51.021Z,6.88
2023-06-10T03:31:20.123Z,7.10
2023-06-10T03:33:48.173Z,6.63
2023-06-10T03:36:16.394Z,7.22
2023-06-10T03:38:43.830Z,7.07
2023-06-10T03:41:11.385Z,7.10
2023-06-10T03:43:42.065Z,6.80
2023-06-10T03:46:09.952Z,6.95
2023-06-10T03:48:39.784Z,6.70
2023-06-10T03:51:08.216Z,6.60
2023-06-10T03:53:35.420Z,6.25
2023-06-10T03:56:02.944Z,6.57
2023-06-10T03:58:31.330Z,6.07
2023-06-10T04:01:00.236Z,6.72
2023-06-10T04:03:34.358Z,6.40
2023-06-10T04:06:02.050Z,6.30
2023-06-10T04:08:29.490Z,6.47
2023-06-10T04:10:57.225Z,6.63
2023-06-10T04:13:25.425Z,6.10
2023-06-10T04:15:56.807Z,6.47
2023-06-10T04:18:24.309Z,6.93
2023-06-10T04:20:55.377Z,6.72
2023-06-10T04:23:22.748Z,6.93
2023-06-10T04:25:50.017Z,6.45
2023-06-10T04:28:17.309Z,7.65
2023-06-10T04:30:46.999Z,7.60
2023-06-10T04:33:15.118Z,7.05
2023-06-10T04:35:43.426Z,7.05
2023-06-10T04:38:15.269Z,5.82
2023-06-10T04:40:43.249Z,6.30
2023-06-10T04:43:12.232Z,5.97
2023-06-10T04:45:40.385Z,5.30
2023-06-10T04:48:08.813Z,5.15
2023-06-10T04:50:36.273Z,6.20
2023-06-10T04:53:03.815Z,5.10
2023-06-10T04:55:32.106Z,5.70
2023-06-10T04:57:59.334Z,5.82
2023-06-10T05:00:26.593Z,5.82
2023-06-10T05:02:54.196Z,6.28
2023-06-10T05:05:21.528Z,6.00
2023-06-10T05:07:48.767Z,5.03
2023-06-10T05:10:16.444Z,6.35
2023-06-10T05:12:43.765Z,5.60
2023-06-10T05:15:12.198Z,5.43
2023-06-10T05:17:39.725Z,5.30
2023-06-10T05:20:07.819Z,5.32
2023-06-10T05:22:35.718Z,5.13
2023-06-10T05:25:03.063Z,5.07
2023-06-10T05:27:30.379Z,5.05
2023-06-10T05:29:57.793Z,4.90
2023-06-10T05:32:25.162Z,4.70
2023-06-10T05:34:52.368Z,5.07
2023-06-10T05:37:19.729Z,4.57
2023-06-10T05:39:47.041Z,5.28
2023-06-10T05:42:14.452Z,4.95
2023-06-10T05:44:41.805Z,5.05
2023-06-10T05:47:09.164Z,5.00
2023-06-10T05:49:36.435Z,4.78
2023-06-10T05:52:04.208Z,5.07
2023-06-10T05:54:31.698Z,4.85
2023-06-10T05:56:59.278Z,5.03
2023-06-10T05:59:26.677Z,4.68
2023-06-10T06:01:53.920Z,4.68
2023-06-10T06:04:21.419Z,3.97
2023-06-10T06:06:48.784Z,4.30
2023-06-10T06:09:16.448Z,4.57
2023-06-10T06:11:43.820Z,4.38
2023-06-10T06:14:10.979Z,4.00
2023-06-10T06:16:38.270Z,3.53
2023-06-10T06:19:05.812Z,4.70
2023-06-10T06:21:33.134Z,3.95
2023-06-10T06:24:01.276Z,3.88
2023-06-10T06:26:28.997Z,3.83
2023-06-10T06:28:56.355Z,4.18
2023-06-10T06:31:23.778Z,4.07
2023-06-10T06:33:51.183Z,4.13
2023-06-10T06:36:18.424Z,3.80
2023-06-10T06:38:45.786Z,3.80
2023-06-10T06:41:13.150Z,3.38
2023-06-10T06:43:40.356Z,3.90
2023-06-10T06:46:18.125Z,3.78
2023-06-10T06:48:46.176Z,3.70
2023-06-10T06:51:13.602Z,4.47
2023-06-10T06:53:45.467Z,3.72
2023-06-10T06:56:13.755Z,3.60
2023-06-10T06:58:41.055Z,3.72
2023-06-10T07:01:08.577Z,3.63
2023-06-10T07:03:35.969Z,3.20
2023-06-10T07:06:03.387Z,3.70
2023-06-10T07:08:30.662Z,4.10
2023-06-10T07:10:58.044Z,3.60
2023-06-10T07:13:25.290Z,3.60
2023-06-10T07:15:52.636Z,3.20
2023-06-10T07:18:19.859Z,3.47
2023-06-10T07:20:47.069Z,3.50
2023-06-10T07:23:14.351Z,3.70
2023-06-10T07:25:43.203Z,3.63
2023-06-10T07:28:10.506Z,3.65
2023-06-10T07:30:37.834Z,4.00
2023-06-10T07:33:06.887Z,3.80
2023-06-10T07:35:34.670Z,3.75
2023-06-10T07:38:01.947Z,3.42
2023-06-10T07:40:29.242Z,3.60
2023-06-10T07:42:56.719Z,3.20
2023-06-10T07:45:24.128Z,2.92
2023-06-10T07:47:51.548Z,3.40
2023-06-10T07:50:19.126Z,3.05
2023-06-10T07:52:46.472Z,3.90
2023-06-10T07:55:13.865Z,3.83
2023-06-10T07:57:41.998Z,3.58
2023-06-10T08:00:10.728Z,3.50
2023-06-10T08:02:41.265Z,3.10
2023-06-10T08:05:09.456Z,3.58
2023-06-10T08:07:37.161Z,4.20
2023-06-10T08:10:07.594Z,3.65
2023-06-10T08:12:36.448Z,3.63
2023-06-10T08:15:05.708Z,3.28
2023-06-10T08:17:33.164Z,3.58
2023-06-10T08:20:01.908Z,3.22
2023-06-10T08:22:30.544Z,3.33
2023-06-10T08:24:57.894Z,3.40
2023-06-10T08:27:26.104Z,3.33
2023-06-10T08:29:53.424Z,3.40
2023-06-10T08:32:20.936Z,3.05
2023-06-10T08:34:48.736Z,3.63
2023-06-10T08:37:16.206Z,3.63
2023-06-10T08:39:43.918Z,3.60
2023-06-10T08:42:40.999Z,3.53
2023-06-10T08:45:18.674Z,3.10
2023-06-10T08:47:54.961Z,3.30
2023-06-10T08:50:24.099Z,3.17
2023-06-10T08:52:59.456Z,3.75
2023-06-10T08:55:43.574Z,3.60
2023-06-10T08:58:12.106Z,3.35
2023-06-10T09:00:40.045Z,3.20
2023-06-10T09:03:09.919Z,3.60
2023-06-10T09:05:38.460Z,3.25
2023-06-10T09:08:09.385Z,3.65
2023-06-10T09:10:36.814Z,3.65
2023-06-10T09:13:04.254Z,3.20
2023-06-10T09:15:31.697Z,3.20
2023-06-10T09:18:00.757Z,3.20
2023-06-10T09:20:28.160Z,2.80
2023-06-10T09:22:55.439Z,3.00
2023-06-10T09:25:39.137Z,4.70
2023-06-10T09:28:15.951Z,2.97
2023-06-10T09:30:43.328Z,3.05
2023-06-10T09:33:17.196Z,3.05
2023-06-10T09:35:51.467Z,3.20
2023-06-10T09:38:23.781Z,3.13
2023-06-10T09:40:54.980Z,3.10
2023-06-10T09:43:23.442Z,3.15
2023-06-10T09:45:58.505Z,2.85
2023-06-10T09:48:26.690Z,3.22
2023-06-10T09:50:54.056Z,3.10
2023-06-10T09:53:22.211Z,2.80
2023-06-10T09:55:49.623Z,2.72
2023-06-10T09:58:17.021Z,3.00
2023-06-10T10:00:44.260Z,2.92
2023-06-10T10:03:24.244Z,3.10
2023-06-10T10:06:01.640Z,3.50
2023-06-10T10:08:29.754Z,2.90
2023-06-10T10:10:59.696Z,3.13
2023-06-10T10:13:29.200Z,2.97
2023-06-10T10:16:16.645Z,3.10
2023-06-10T10:18:55.792Z,2.95
2023-06-10T10:21:33.237Z,3.00
2023-06-10T10:24:19.068Z,3.22
2023-06-10T10:26:51.722Z,2.90
2023-06-10T10:29:32.321Z,3.05
2023-06-10T10:32:02.032Z,2.90
2023-06-10T10:35:07.085Z,2.70
2023-06-10T10:37:36.501Z,2.83
2023-06-10T10:40:06.085Z,2.78
2023-06-10T10:42:34.871Z,2.92
2023-06-10T10:45:03.558Z,2.83
2023-06-10T10:47:34.602Z,2.63
2023-06-10T10:50:01.880Z,2.67
2023-06-10T10:53:01.208Z,2.70
2023-06-10T10:55:29.682Z,2.60
2023-06-10T10:58:03.825Z,2.60
2023-06-10T11:00:45.903Z,2.78
2023-06-10T11:03:19.055Z,3.05
2023-06-10T11:05:50.265Z,2.90
2023-06-10T11:08:30.187Z,2.90
2023-06-10T11:10:57.753Z,2.80
2023-06-10T11:13:28.236Z,2.53
2023-06-10T11:15:59.831Z,2.80
2023-06-10T11:18:32.321Z,2.75
2023-06-10T11:21:06.270Z,2.80
2023-06-10T11:23:34.331Z,3.20
2023-06-10T11:26:32.613Z,2.60
2023-06-10T11:28:59.912Z,2.80
2023-06-10T11:31:43.268Z,2.63
2023-06-10T11:34:11.573Z,2.88
2023-06-10T11:36:46.541Z,2.83
2023-06-10T11:39:14.839Z,2.83
2023-06-10T11:41:42.582Z,2.95
2023-06-10T11:44:17.269Z,2.45
2023-06-10T11:46:49.225Z,2.90
2023-06-10T11:49:16.843Z,2.63
2023-06-10T11:51:51.208Z,2.90
2023-06-10T11:54:19.508Z,3.10
2023-06-10T11:56:48.579Z,2.83
2023-06-10T11:59:16.166Z,3.03
2023-06-10T12:01:46.968Z,3.00
2023-06-10T12:04:17.331Z,3.35
2023-06-10T12:06:48.864Z,3.10
2023-06-10T12:09:26.061Z,3.10
2023-06-10T12:12:09.885Z,2.97
2023-06-10T12:15:00.911Z,3.10
2023-06-10T12:17:32.820Z,3.13
2023-06-10T12:20:04.901Z,3.25
2023-06-10T12:22:45.723Z,3.25
2023-06-10T12:25:13.950Z,3.58
2023-06-10T12:27:54.125Z,3.05
2023-06-10T12:30:25.183Z,2.72
2023-06-10T12:32:56.647Z,2.88
2023-06-10T12:35:27.780Z,2.70
2023-06-10T12:38:07.887Z,2.58
2023-06-10T12:40:44.541Z,2.67
2023-06-10T12:43:13.020Z,2.78
2023-06-10T12:45:44.326Z,2.95
2023-06-10T12:48:17.949Z,2.95
2023-06-10T12:50:47.954Z,3.03
2023-06-10T12:53:15.863Z,2.90
2023-06-10T12:55:43.226Z,2.70
2023-06-10T12:58:10.649Z,3.10
2023-06-10T13:00:38.576Z,2.45
2023-06-10T13:03:08.768Z,2.72
2023-06-10T13:05:40.238Z,2.65
2023-06-10T13:08:11.260Z,2.70
2023-06-10T13:10:39.782Z,2.75
2023-06-10T13:13:09.124Z,2.67
2023-06-10T13:15:40.291Z,2.40
2023-06-10T13:18:09.225Z,2.40
2023-06-10T13:20:37.225Z,2.63
2023-06-10T13:23:04.723Z,3.10
2023-06-10T13:25:32.240Z,2.83
2023-06-10T13:27:59.517Z,2.92
2023-06-10T13:30:27.779Z,2.90
2023-06-10T13:32:55.137Z,2.80
2023-06-10T13:35:22.590Z,3.10
2023-06-10T13:37:50.005Z,3.00
2023-06-10T13:40:17.278Z,3.30
2023-06-10T13:42:45.242Z,2.70
2023-06-10T13:45:13.115Z,3.22
2023-06-10T13:47:40.642Z,2.72
2023-06-10T13:50:09.276Z,2.90
2023-06-10T13:52:36.622Z,2.72
2023-06-10T13:55:04.892Z,2.78
2023-06-10T13:57:32.109Z,2.70
2023-06-10T13:59:59.375Z,2.60
2023-06-10T14:02:26.708Z,2.85
2023-06-10T14:04:54.288Z,3.17
2023-06-10T14:07:21.923Z,3.10
2023-06-10T14:09:49.385Z,3.08
2023-06-10T14:12:16.600Z,2.83
2023-06-10T14:14:43.983Z,3.20
2023-06-10T14:17:11.439Z,3.40
2023-06-10T14:19:38.813Z,3.17
2023-06-10T14:22:08.273Z,3.00
2023-06-10T14:24:37.509Z,3.00
2023-06-10T14:27:05.458Z,3.10
2023-06-10T14:29:34.597Z,3.20
2023-06-10T14:32:02.138Z,3.15
2023-06-10T14:34:30.875Z,2.92
2023-06-10T14:36:58.302Z,3.10
2023-06-10T14:39:25.812Z,3.33
2023-06-10T14:41:55.950Z,3.30
2023-06-10T14:44:23.270Z,3.30
2023-06-10T14:46:50.653Z,3.55
2023-06-10T14:49:18.000Z,3.30
2023-06-10T14:51:45.867Z,2.90
2023-06-10T14:54:13.153Z,3.28
2023-06-10T14:56:40.464Z,3.60
2023-06-10T14:59:07.712Z,3.40
2023-06-10T15:01:35.363Z,3.55
2023-06-10T15:04:02.807Z,3.40
2023-06-10T15:06:30.175Z,3.15
2023-06-10T15:08:57.417Z,3.30
2023-06-10T15:11:24.866Z,4.45
2023-06-10T15:13:55.388Z,3.60
2023-06-10T15:16:22.813Z,3.55
2023-06-10T15:18:50.789Z,3.65
2023-06-10T15:21:18.090Z,3.75
2023-06-10T15:23:45.664Z,3.28
2023-06-10T15:26:13.113Z,3.10
2023-06-10T15:28:40.424Z,3.35
2023-06-10T15:31:09.188Z,3.72
2023-06-10T15:33:37.126Z,3.95
2023-06-10T15:36:06.261Z,3.33
2023-06-10T15:38:33.595Z,3.10
2023-06-10T15:41:00.811Z,3.15
2023-06-10T15:43:28.095Z,3.15
2023-06-10T15:45:59.597Z,3.00
2023-06-10T15:48:27.313Z,2.60
2023-06-10T15:50:54.614Z,2.60
2023-06-10T15:53:21.839Z,2.55
2023-06-10T15:55:50.287Z,2.55
2023-06-10T15:58:17.971Z,2.40
2023-06-10T16:00:45.356Z,2.70
2023-06-10T16:03:12.815Z,2.80
2023-06-10T16:05:40.190Z,2.58
2023-06-10T16:08:07.398Z,2.70
2023-06-10T16:10:34.720Z,2.63
2023-06-10T16:13:03.554Z,2.92
2023-06-10T16:15:30.808Z,3.00
2023-06-10T16:17:59.302Z,2.70
2023-06-10T16:20:26.788Z,2.80
2023-06-10T16:22:54.126Z,2.70
2023-06-10T16:25:21.390Z,2.70
2023-06-10T16:27:51.969Z,2.58
2023-06-10T16:30:19.208Z,2.67
2023-06-10T16:32:46.546Z,2.60
2023-06-10T16:35:13.846Z,2.90
2023-06-10T16:37:44.951Z,2.90
2023-06-10T16:40:13.618Z,2.53
2023-06-10T16:42:45.338Z,2.95
2023-06-10T16:45:20.278Z,2.80
2023-06-10T16:47:47.784Z,3.08
2023-06-10T16:50:15.338Z,3.35
2023-06-10T16:52:43.140Z,2.80
2023-06-10T16:55:10.811Z,2.90
2023-06-10T16:57:38.271Z,2.80
2023-06-10T17:00:07.503Z,3.47
2023-06-10T17:02:34.959Z,3.28
2023-06-10T17:05:02.391Z,2.75
2023-06-10T17:07:31.589Z,3.28
2023-06-10T17:09:59.679Z,3.20
2023-06-10T17:12:26.969Z,3.30
2023-06-10T17:14:54.360Z,2.90
2023-06-10T17:17:21.770Z,3.33
2023-06-10T17:19:51.284Z,3.22
2023-06-10T17:22:19.819Z,3.40
2023-06-10T17:24:47.081Z,3.13
2023-06-10T17:27:14.397Z,2.90
2023-06-10T17:29:41.905Z,3.17
2023-06-10T17:32:09.927Z,3.15
2023-06-10T17:34:37.165Z,3.10
2023-06-10T17:37:04.831Z,3.15
2023-06-10T17:39:37.426Z,3.35
2023-06-10T17:42:07.114Z,3.55
2023-06-10T17:44:34.648Z,3.25
2023-06-10T17:47:01.884Z,3.58
2023-06-10T17:49:32.947Z,3.40
2023-06-10T17:52:00.606Z,3.50
2023-06-10T17:54:27.856Z,3.38
2023-06-10T17:56:56.494Z,3.60
2023-06-10T17:59:24.119Z,3.20
2023-06-10T18:01:51.537Z,3.65
2023-06-10T18:04:19.152Z,3.30
2023-06-10T18:06:46.594Z,3.40
2023-06-10T18:09:16.262Z,3.15
2023-06-10T18:11:43.980Z,3.38
2023-06-10T18:14:11.606Z,3.28
2023-06-10T18:16:38.995Z,3.20
2023-06-10T18:19:06.465Z,3.20
2023-06-10T18:21:33.737Z,3.42
2023-06-10T18:24:01.324Z,3.33
2023-06-10T18:26:28.851Z,3.30
2023-06-10T18:28:56.229Z,2.97
2023-06-10T18:31:23.706Z,3.58
2023-06-10T18:33:51.207Z,3.55
2023-06-10T18:36:18.420Z,3.20
2023-06-10T18:38:46.701Z,3.30
2023-06-10T18:41:14.094Z,3.22
2023-06-10T18:43:42.452Z,3.30
2023-06-10T18:46:10.259Z,3.42
2023-06-10T18:48:37.609Z,3.15
2023-06-10T18:51:04.969Z,3.22
2023-06-10T18:53:32.280Z,3.50
2023-06-10T18:56:02.627Z,3.42
2023-06-10T18:58:37.759Z,3.45
2023-06-10T19:01:08.423Z,3.72
2023-06-10T19:03:35.971Z,3.45
2023-06-10T19:06:03.428Z,3.80
2023-06-10T19:08:31.164Z,4.13
2023-06-10T19:10:58.536Z,3.63
2023-06-10T19:13:28.582Z,4.13
2023-06-10T19:15:56.054Z,3.90
2023-06-10T19:18:23.897Z,3.67
2023-06-10T19:20:52.289Z,3.80
2023-06-10T19:23:19.831Z,3.50
2023-06-10T19:25:47.221Z,4.05
2023-06-10T19:28:14.543Z,3.72
2023-06-10T19:31:09.596Z,4.00
2023-06-10T19:33:37.145Z,3.90
2023-06-10T19:36:04.812Z,4.13
2023-06-10T19:38:32.110Z,4.13
2023-06-10T19:40:59.349Z,4.43
2023-06-10T19:43:26.582Z,4.32
2023-06-10T19:45:53.882Z,4.60
2023-06-10T19:48:21.367Z,4.10
2023-06-10T19:50:49.607Z,4.68
2023-06-10T19:53:16.868Z,4.70
2023-06-10T19:55:44.241Z,4.57
2023-06-10T19:58:12.597Z,4.72
2023-06-10T20:00:39.815Z,4.25
2023-06-10T20:03:07.213Z,4.20
2023-06-10T20:05:34.782Z,4.55
2023-06-10T20:08:02.047Z,5.38
2023-06-10T20:10:29.297Z,4.32
2023-06-10T20:12:56.547Z,5.07
2023-06-10T20:15:24.030Z,4.82
2023-06-10T20:17:52.930Z,4.82
2023-06-10T20:20:20.357Z,5.03
2023-06-10T20:22:47.782Z,4.70
2023-06-10T20:25:15.552Z,4.80
2023-06-10T20:27:43.676Z,4.45
2023-06-10T20:30:11.792Z,4.55
2023-06-10T20:32:40.444Z,4.50
2023-06-10T20:35:09.421Z,4.68
2023-06-10T20:37:36.985Z,4.53
2023-06-10T20:40:06.460Z,4.47
2023-06-10T20:42:33.907Z,4.80
2023-06-10T20:45:01.506Z,5.28
2023-06-10T20:47:29.067Z,4.88
2023-06-10T20:49:56.456Z,4.82
2023-06-10T20:52:23.907Z,4.90
2023-06-10T20:54:51.282Z,4.35
2023-06-10T20:57:29.568Z,4.25
2023-06-10T21:00:20.903Z,4.32
2023-06-10T21:03:09.250Z,4.68
2023-06-10T21:05:48.769Z,4.95
2023-06-10T21:08:16.791Z,4.60
2023-06-10T21:10:44.279Z,4.80
2023-06-10T21:13:11.639Z,4.75
2023-06-10T21:15:39.009Z,4.78
2023-06-10T21:18:06.378Z,5.05
2023-06-10T21:20:33.693Z,4.85
2023-06-10T21:23:01.301Z,4.97
2023-06-10T21:25:28.645Z,4.80
2023-06-10T21:27:55.975Z,4.80
2023-06-10T21:30:23.747Z,4.80
2023-06-10T21:32:51.222Z,4.57
2023-06-10T21:35:18.627Z,4.82
2023-06-10T21:37:46.093Z,4.82
2023-06-10T21:40:14.653Z,4.72
2023-06-10T21:42:41.964Z,4.47
2023-06-10T21:45:10.484Z,4.40
2023-06-10T21:47:38.019Z,4.72
2023-06-10T21:50:06.512Z,4.18
2023-06-10T21:52:36.625Z,4.22
2023-06-10T21:55:04.374Z,4.35
2023-06-10T21:57:32.189Z,4.15
2023-06-10T21:59:59.555Z,4.43
2023-06-10T22:02:27.729Z,4.15
2023-06-10T22:04:55.393Z,4.22
2023-06-10T22:07:22.736Z,4.53
2023-06-10T22:09:50.710Z,4.40
2023-06-10T22:12:18.578Z,4.32
2023-06-10T22:14:46.264Z,4.50
2023-06-10T22:17:14.322Z,4.90
2023-06-10T22:19:42.655Z,4.20
2023-06-10T22:22:12.313Z,4.70
2023-06-10T22:24:39.592Z,4.45
2023-06-10T22:27:09.516Z,4.45
2023-06-10T22:29:38.215Z,4.50
2023-06-10T22:32:06.633Z,4.70
2023-06-10T22:34:34.002Z,4.50
2023-06-10T22:37:01.376Z,4.85
2023-06-10T22:39:28.705Z,4.53
2023-06-10T22:41:56.366Z,4.50
2023-06-10T22:44:23.613Z,4.50
2023-06-10T22:46:51.044Z,4.63
2023-06-10T22:49:18.624Z,5.10
2023-06-10T22:51:47.376Z,4.57
2023-06-10T22:54:15.270Z,4.93
2023-06-10T22:56:42.822Z,4.57
2023-06-10T22:59:11.638Z,4.90
2023-06-10T23:01:39.282Z,4.72
2023-06-10T23:04:06.524Z,4.75
2023-06-10T23:06:33.798Z,4.82
2023-06-10T23:09:01.023Z,4.70
2023-06-10T23:11:28.208Z,5.03
2023-06-10T23:13:55.537Z,4.90
2023-06-10T23:16:22.844Z,4.75
2023-06-10T23:18:51.080Z,4.60
2023-06-10T23:21:20.015Z,5.13
2023-06-10T23:23:53.025Z,5.53
2023-06-10T23:26:20.692Z,5.10
2023-06-10T23:28:48.048Z,5.10
2023-06-10T23:31:17.173Z,4.85
2023-06-10T23:33:45.318Z,5.00
2023-06-10T23:36:14.004Z,5.40
2023-06-10T23:38:41.727Z,5.25
2023-06-10T23:41:09.064Z,5.30
2023-06-10T23:43:36.493Z,4.63
2023-06-10T23:46:03.915Z,5.07
2023-06-10T23:48:31.176Z,5.40
2023-06-10T23:51:00.995Z,5.35
2023-06-10T23:53:28.400Z,5.57
2023-06-10T23:55:55.849Z,5.60
2023-06-10T23:58:23.191Z,5.30
